Aeroporto :
LOGIN :

Iscrizione | Disclaimer

   EN    FR    IT 

 










Sommario :    VFR   VFR Marginale   IFR   IFR Intensivo   IFR Molto Intensivo
Visibilità : 
Base nubi : 
>= 8 km
>= 3000ft
5 / 8 km
1000 / 3000 ft
1500m / 5 km
500 / 1000 ft
800 / 1500m
200 / 500 ft
< 800m
< 200 ft
Simboli :   Temporali  Nebbia  Neve Forte  Precipitazioni Forti  Vento > 20 kt
SIGMETs :   Varie  Temporali  Ghiacco  Turbolenza  Onda orograficha  Ceneri Vulcaniche






- Altitudine del aeroporto : 13 ft
- Codice IATA : LYX


EGMD - Lydd

ULTIMO METAR :
  • 242150Z AUTO VRB02KT 9999 NCD 12/11 Q1033

METARs OBSOLETI :
  • 242120Z AUTO VRB01KT 9999 NCD 13/12 Q1033
  • 242050Z AUTO VRB02KT 9999 NCD 14/12 Q1032
  • 242020Z AUTO 23005KT 210V270 9999 NCD 15/14 Q1032
  • 241950Z AUTO 24005KT 9999 NCD 15/14 Q1032
  • 241920Z AUTO 22006KT 9999 NCD 15/14 Q1032
  • 241850Z AUTO 22012KT 9999 NCD 15/13 Q1032

TAF TAF EGMD
Valido dal 24 a 21 ore il 25 a 06 ore UTC


241957Z 2421/2506 VRB04KT 9999 FEW040
ATIS : +44 1797 322 422



MetMap, La meteo Aeronautica in un colpo d'occhio ! - Copyright ORBIFLY Dicembre 2007 - Disclaimer

ORBIFLY MET'MAP TEAM :

Programmazione e sviluppo : Alexandra Zaïnal
Concezione : Baudouin d'Aumeries
Aiuto per la programmazione : Marc-Olivier Méhu
Supporto tecnico e logistico : Manuel Goepfert
Aiuto per la traduzione : Arnaldo La Scala

Contatto : metmap@orbifly.com




FONTI E CREDITI :

   NOAA